Balsall Common, United Kingdom
Current Conditions -  °F | °C
As of 7:50 AM on Thursday 27 Nov 2014 (Local Time) from EGBB Reporting Station
Haze Haze  
Wind Chill: 45°   Ceiling: 800
Heat Index: 45°   Visibility: 3mi
Dew Point: 45°   Wind: 3mph
Humidity: 100%   Direction: 140°SE
Pressure: 29.59"   Gusts: NA
Location:  52.39°N, 1.65°W
Report Text: EGBB 270750Z 14003KT 4800 1800S BR SCT002 BKN008 07/07 Q1002
Loading
Personal Weather Stations






























Interactive Weather Map New forecast layout! Learn more

10-Day Weather Forecast

Advertisements
Track Severe Weather on mobile